createdAt,value
2019-05-18T00:01:25.296Z,29.13
2019-05-18T00:03:54.069Z,29.10
2019-05-18T00:06:22.501Z,32.07
2019-05-18T00:08:50.941Z,31.12
2019-05-18T00:11:19.392Z,32.80
2019-05-18T00:13:47.829Z,31.60
2019-05-18T00:16:16.265Z,32.80
2019-05-18T00:18:44.705Z,31.73
2019-05-18T00:21:13.134Z,33.80
2019-05-18T00:23:41.591Z,32.70
2019-05-18T00:26:10.032Z,27.37
2019-05-18T00:28:39.139Z,31.20
2019-05-18T00:31:07.569Z,33.57
2019-05-18T00:33:36.016Z,30.83
2019-05-18T00:36:04.834Z,31.67
2019-05-18T00:38:33.273Z,33.93
2019-05-18T00:41:01.941Z,33.77
2019-05-18T00:43:30.481Z,31.83
2019-05-18T00:45:58.913Z,34.33
2019-05-18T00:48:27.348Z,33.33
2019-05-18T00:50:55.908Z,32.97
2019-05-18T00:53:25.314Z,33.67
2019-05-18T00:55:53.728Z,37.17
2019-05-18T00:58:22.166Z,38.87
2019-05-18T01:00:50.613Z,39.47
2019-05-18T01:03:19.068Z,35.80
2019-05-18T01:05:47.544Z,31.63
2019-05-18T01:08:16.045Z,31.87
2019-05-18T01:10:45.257Z,30.87
2019-05-18T01:13:13.717Z,30.07
2019-05-18T01:15:42.233Z,32.17
2019-05-18T01:18:10.705Z,30.43
2019-05-18T01:20:39.180Z,30.80
2019-05-18T01:23:07.821Z,31.00
2019-05-18T01:25:36.307Z,27.50
2019-05-18T01:28:04.742Z,32.40
2019-05-18T01:30:33.197Z,30.57
2019-05-18T01:33:01.616Z,31.93
2019-05-18T01:35:30.061Z,30.70
2019-05-18T01:37:58.620Z,31.30
2019-05-18T01:40:27.842Z,31.33
2019-05-18T01:42:56.284Z,32.50
2019-05-18T01:45:25.291Z,31.70
2019-05-18T01:47:53.821Z,29.83
2019-05-18T01:50:22.274Z,30.33
2019-05-18T01:52:51.175Z,30.60
2019-05-18T01:55:19.687Z,31.77
2019-05-18T01:57:48.258Z,30.90
2019-05-18T02:00:17.240Z,31.00
2019-05-18T02:02:45.669Z,30.13
2019-05-18T02:05:14.482Z,31.50
2019-05-18T02:07:42.917Z,29.53
2019-05-18T02:10:11.813Z,29.77
2019-05-18T02:12:40.240Z,30.20
2019-05-18T02:15:09.218Z,30.07
2019-05-18T02:17:37.656Z,31.90
2019-05-18T02:20:07.216Z,30.60
2019-05-18T02:22:35.652Z,30.03
2019-05-18T02:25:08.871Z,29.20
2019-05-18T02:27:37.331Z,29.43
2019-05-18T02:30:08.385Z,29.50
2019-05-18T02:32:37.168Z,26.60
2019-05-18T02:35:06.656Z,27.50
2019-05-18T02:37:35.258Z,31.10
2019-05-18T02:40:07.725Z,30.43
2019-05-18T02:42:36.168Z,28.73
2019-05-18T02:45:07.244Z,32.00
2019-05-18T02:47:37.168Z,29.20
2019-05-18T02:50:07.383Z,29.57
2019-05-18T02:52:35.866Z,30.90
2019-05-18T02:56:29.201Z,30.60
2019-05-18T02:58:57.632Z,31.90
2019-05-18T03:01:26.662Z,30.07
2019-05-18T03:03:55.098Z,29.40
2019-05-18T03:06:23.547Z,30.53
2019-05-18T03:08:52.155Z,30.93
2019-05-18T03:11:20.591Z,30.73
2019-05-18T03:13:49.198Z,30.40
2019-05-18T03:16:17.638Z,30.27
2019-05-18T03:18:46.092Z,31.53
2019-05-18T03:21:14.589Z,30.70
2019-05-18T03:23:43.058Z,30.77
2019-05-18T03:26:11.510Z,32.43
2019-05-18T03:28:40.058Z,31.90
2019-05-18T03:31:08.501Z,30.67
2019-05-18T03:33:37.019Z,33.10
2019-05-18T03:36:05.526Z,30.00
2019-05-18T03:38:33.967Z,31.33
2019-05-18T03:41:02.409Z,31.40
2019-05-18T03:43:30.850Z,32.23
2019-05-18T03:45:59.297Z,30.20
2019-05-18T03:48:27.735Z,31.37
2019-05-18T03:50:56.320Z,30.80
2019-05-18T03:53:24.780Z,31.50
2019-05-18T03:55:53.216Z,27.30
2019-05-18T03:58:21.666Z,30.90
2019-05-18T04:00:50.086Z,30.70
2019-05-18T04:03:18.543Z,32.23
2019-05-18T04:05:46.969Z,29.73
2019-05-18T04:08:15.435Z,32.90
2019-05-18T04:10:44.042Z,28.93
2019-05-18T04:13:12.693Z,30.57
2019-05-18T04:15:41.127Z,31.60
2019-05-18T04:18:10.359Z,29.60
2019-05-18T04:20:38.806Z,31.60
2019-05-18T04:23:07.257Z,33.60
2019-05-18T04:25:35.688Z,32.07
2019-05-18T04:28:04.151Z,30.10
2019-05-18T04:30:32.639Z,31.70
2019-05-18T04:33:01.112Z,33.60
2019-05-18T04:35:29.611Z,29.93
2019-05-18T04:37:58.042Z,31.83
2019-05-18T04:40:26.493Z,31.00
2019-05-18T04:42:54.929Z,31.87
2019-05-18T04:45:23.717Z,30.30
2019-05-18T04:47:52.165Z,30.03
2019-05-18T04:50:20.643Z,30.63
2019-05-18T04:52:49.152Z,30.47
2019-05-18T04:55:17.674Z,32.87
2019-05-18T04:57:46.178Z,29.07
2019-05-18T05:00:14.990Z,28.47
2019-05-18T05:02:43.577Z,31.17
2019-05-18T05:05:12.273Z,31.13
2019-05-18T05:07:40.729Z,29.70
2019-05-18T05:10:09.601Z,31.20
2019-05-18T05:12:38.092Z,29.10
2019-05-18T05:15:07.739Z,28.80
2019-05-18T05:17:36.232Z,28.77
2019-05-18T05:20:18.713Z,30.60
2019-05-18T05:22:36.761Z,27.57
2019-05-18T05:25:05.767Z,28.50
2019-05-18T05:27:34.192Z,30.23
2019-05-18T05:30:03.109Z,27.90
2019-05-18T05:32:31.544Z,29.67
2019-05-18T05:34:59.986Z,30.07
2019-05-18T05:37:28.429Z,25.87
2019-05-18T05:39:56.950Z,27.60
2019-05-18T05:42:25.923Z,27.37
2019-05-18T05:44:54.899Z,29.70
2019-05-18T05:47:23.320Z,27.67
2019-05-18T05:49:51.761Z,27.30
2019-05-18T05:52:20.353Z,29.90
2019-05-18T05:54:49.074Z,26.97
2019-05-18T05:57:17.582Z,28.03
2019-05-18T05:59:46.074Z,28.40
2019-05-18T06:02:14.647Z,25.57
2019-05-18T06:04:43.088Z,27.37
2019-05-18T06:07:11.562Z,26.70
2019-05-18T06:09:41.642Z,26.80
2019-05-18T06:12:10.077Z,27.40
2019-05-18T06:14:38.502Z,27.73
2019-05-18T06:17:08.532Z,25.80
2019-05-18T06:19:37.119Z,26.97
2019-05-18T06:22:05.566Z,31.20
2019-05-18T06:24:34.185Z,28.80
2019-05-18T06:27:02.632Z,27.50
2019-05-18T06:29:31.145Z,30.23
2019-05-18T06:31:59.638Z,25.20
2019-05-18T06:34:28.074Z,28.40
2019-05-18T06:36:56.734Z,25.83
2019-05-18T06:39:25.173Z,25.27
2019-05-18T06:41:53.754Z,26.43
2019-05-18T06:44:22.202Z,25.63
2019-05-18T06:46:50.770Z,30.83
2019-05-18T06:49:19.269Z,25.50
2019-05-18T06:51:47.922Z,26.17
2019-05-18T06:54:16.350Z,24.20
2019-05-18T06:56:45.101Z,26.17
2019-05-18T06:59:16.377Z,24.87
2019-05-18T07:01:45.172Z,27.75
2019-05-18T07:04:13.626Z,23.20
2019-05-18T07:06:42.140Z,24.10
2019-05-18T07:09:14.070Z,24.93
2019-05-18T07:11:40.894Z,22.13
2019-05-18T07:14:09.358Z,23.47
2019-05-18T07:16:37.841Z,22.73
2019-05-18T07:19:08.321Z,23.00
2019-05-18T07:21:36.769Z,22.53
2019-05-18T07:24:05.201Z,22.50
2019-05-18T07:26:33.651Z,23.80
2019-05-18T07:29:05.670Z,24.67
2019-05-18T07:31:32.437Z,24.37
2019-05-18T07:34:00.937Z,21.17
2019-05-18T07:36:29.372Z,24.67
2019-05-18T07:38:57.836Z,24.40
2019-05-18T07:41:26.320Z,22.60
2019-05-18T07:43:54.759Z,23.60
2019-05-18T07:46:23.185Z,24.90
2019-05-18T07:48:51.641Z,25.27
2019-05-18T07:51:20.172Z,22.80
2019-05-18T07:53:48.647Z,23.57
2019-05-18T07:56:17.090Z,24.87
2019-05-18T07:58:45.528Z,23.53
2019-05-18T08:01:14.166Z,21.80
2019-05-18T08:03:42.660Z,21.33
2019-05-18T08:06:11.094Z,21.00
2019-05-18T08:08:39.538Z,23.50
2019-05-18T08:13:34.443Z,20.13
2019-05-18T08:16:02.939Z,18.90
2019-05-18T08:18:31.380Z,20.20
2019-05-18T08:22:59.493Z,18.50
2019-05-18T08:25:28.022Z,17.63
2019-05-18T08:27:56.456Z,17.93
2019-05-18T08:30:24.909Z,14.73
2019-05-18T08:32:53.386Z,16.77
2019-05-18T08:35:21.840Z,15.70
2019-05-18T08:37:50.293Z,16.30
2019-05-18T08:40:19.986Z,18.00
2019-05-18T08:42:48.997Z,15.77
2019-05-18T08:45:17.877Z,16.87
2019-05-18T08:47:46.316Z,17.37
2019-05-18T08:50:15.029Z,15.43
2019-05-18T08:52:43.467Z,13.63
2019-05-18T08:55:13.737Z,14.43
2019-05-18T08:57:42.192Z,13.10
2019-05-18T09:00:11.178Z,13.40
2019-05-18T09:02:39.609Z,15.03
2019-05-18T09:05:08.658Z,12.70
2019-05-18T09:07:37.124Z,15.23
2019-05-18T09:10:09.063Z,16.43
2019-05-18T09:12:37.685Z,16.40
2019-05-18T09:15:08.521Z,14.87
2019-05-18T09:17:37.171Z,14.77
2019-05-18T09:20:07.522Z,14.97
2019-05-18T09:22:36.081Z,13.80
2019-05-18T09:25:06.073Z,13.50
2019-05-18T09:27:34.648Z,14.80
2019-05-18T09:30:03.576Z,14.57
2019-05-18T09:32:32.038Z,15.30
2019-05-18T09:35:00.471Z,13.50
2019-05-18T09:37:28.910Z,13.10
2019-05-18T09:39:57.353Z,13.27
2019-05-18T09:42:25.879Z,13.10
2019-05-18T09:44:54.314Z,12.97
2019-05-18T09:47:22.770Z,12.37
2019-05-18T09:49:51.221Z,10.90
2019-05-18T09:52:21.733Z,11.67
2019-05-18T09:54:49.957Z,11.67
2019-05-18T09:57:18.397Z,11.90
2019-05-18T09:59:48.549Z,11.50
2019-05-18T10:02:17.083Z,12.20
2019-05-18T10:04:45.517Z,11.90
2019-05-18T10:07:18.921Z,12.33
2019-05-18T10:09:47.354Z,12.57
2019-05-18T10:12:15.869Z,11.37
2019-05-18T10:14:44.356Z,9.63
2019-05-18T10:17:12.799Z,11.20
2019-05-18T10:19:41.359Z,10.73
2019-05-18T10:22:09.966Z,11.50
2019-05-18T10:24:38.396Z,10.97
2019-05-18T10:27:06.985Z,10.43
2019-05-18T10:29:35.547Z,9.90
2019-05-18T10:32:05.730Z,12.23
2019-05-18T10:34:34.860Z,11.73
2019-05-18T10:37:03.292Z,10.70
2019-05-18T10:39:31.838Z,11.97
2019-05-18T10:42:00.368Z,11.17
2019-05-18T10:44:29.044Z,14.00
2019-05-18T10:46:57.630Z,10.13
2019-05-18T10:49:30.320Z,10.77
2019-05-18T10:52:01.998Z,10.47
2019-05-18T10:54:32.114Z,9.67
2019-05-18T10:57:00.729Z,9.90
2019-05-18T10:59:29.263Z,9.53
2019-05-18T11:01:57.800Z,10.63
2019-05-18T11:04:28.022Z,10.17
2019-05-18T11:06:58.762Z,10.07
2019-05-18T11:09:28.508Z,10.80
2019-05-18T11:11:58.937Z,9.90
2019-05-18T11:14:27.229Z,9.80
2019-05-18T11:16:55.695Z,10.60
2019-05-18T11:19:24.219Z,9.10
2019-05-18T11:21:52.658Z,9.60
2019-05-18T11:24:21.094Z,9.43
2019-05-18T11:26:49.545Z,9.93
2019-05-18T11:29:17.997Z,10.20
2019-05-18T11:31:46.450Z,10.50
2019-05-18T11:34:14.976Z,8.70
2019-05-18T11:36:43.472Z,9.40
2019-05-18T11:39:12.054Z,10.50
2019-05-18T11:41:40.549Z,10.30
2019-05-18T11:44:10.912Z,9.30
2019-05-18T11:46:39.335Z,11.00
2019-05-18T11:49:07.943Z,11.70
2019-05-18T11:51:36.396Z,12.30
2019-05-18T11:54:04.891Z,10.47
2019-05-18T11:56:33.406Z,11.00
2019-05-18T11:59:01.949Z,9.77
2019-05-18T12:01:30.461Z,9.10
2019-05-18T12:03:58.944Z,10.20
2019-05-18T12:06:27.460Z,8.80
2019-05-18T12:08:58.581Z,10.87
2019-05-18T12:11:26.059Z,9.50
2019-05-18T12:13:54.549Z,9.53
2019-05-18T12:16:23.132Z,8.73
2019-05-18T12:18:51.566Z,8.90
2019-05-18T12:21:21.818Z,9.50
2019-05-18T12:23:50.349Z,9.33
2019-05-18T12:26:18.823Z,9.07
2019-05-18T12:28:47.292Z,8.83
2019-05-18T12:31:17.334Z,8.87
2019-05-18T12:33:46.012Z,9.10
2019-05-18T12:36:15.711Z,8.20
2019-05-18T12:38:44.435Z,8.97
2019-05-18T12:41:12.906Z,7.63
2019-05-18T12:43:41.409Z,10.07
2019-05-18T12:46:10.009Z,8.30
2019-05-18T12:48:38.634Z,9.33
2019-05-18T12:51:07.435Z,8.13
2019-05-18T12:53:37.499Z,7.57
2019-05-18T12:56:06.070Z,7.70
2019-05-18T12:58:37.482Z,6.77
2019-05-18T13:01:04.669Z,7.30
2019-05-18T13:03:33.109Z,7.93
2019-05-18T13:06:01.586Z,7.80
2019-05-18T13:08:30.086Z,7.93
2019-05-18T13:10:58.590Z,5.63
2019-05-18T13:13:27.037Z,6.60
2019-05-18T13:15:57.019Z,6.00
2019-05-18T13:18:25.442Z,5.80
2019-05-18T13:20:53.879Z,6.87
2019-05-18T13:23:22.309Z,6.33
2019-05-18T13:25:50.761Z,6.33
2019-05-18T13:28:19.189Z,4.93
2019-05-18T13:30:47.639Z,6.43
2019-05-18T13:33:16.070Z,5.57
2019-05-18T13:35:45.624Z,5.20
2019-05-18T13:38:14.433Z,6.10
2019-05-18T13:40:42.856Z,5.90
2019-05-18T13:43:11.297Z,5.50
2019-05-18T13:45:39.749Z,6.73
2019-05-18T13:48:09.661Z,7.60
2019-05-18T13:50:38.119Z,6.10
2019-05-18T13:53:06.660Z,6.30
2019-05-18T13:55:35.107Z,5.73
2019-05-18T13:58:03.555Z,6.10
2019-05-18T14:00:31.994Z,6.60
2019-05-18T14:03:00.721Z,5.73
2019-05-18T14:05:29.154Z,5.73
2019-05-18T14:07:57.639Z,5.70
2019-05-18T14:10:26.160Z,5.40
2019-05-18T14:12:54.587Z,5.27
2019-05-18T14:15:24.687Z,6.07
2019-05-18T14:17:53.148Z,5.83
2019-05-18T14:20:21.623Z,5.00
2019-05-18T14:22:50.060Z,5.77
2019-05-18T14:25:20.008Z,5.77
2019-05-18T14:27:48.664Z,5.57
2019-05-18T14:30:18.068Z,5.87
2019-05-18T14:32:48.595Z,5.30
2019-05-18T14:35:17.285Z,5.67
2019-05-18T14:37:45.738Z,5.60
2019-05-18T14:40:14.618Z,5.30
2019-05-18T14:42:43.100Z,5.07
2019-05-18T14:45:12.326Z,5.13
2019-05-18T14:47:40.766Z,4.83
2019-05-18T14:50:09.944Z,4.83
2019-05-18T14:52:38.422Z,5.00
2019-05-18T14:55:07.637Z,5.53
2019-05-18T14:57:36.249Z,4.40
2019-05-18T15:00:06.438Z,5.07
2019-05-18T15:02:34.927Z,4.70
2019-05-18T15:05:05.200Z,5.20
2019-05-18T15:07:34.156Z,4.30
2019-05-18T15:10:02.684Z,10.63
2019-05-18T15:12:31.187Z,12.40
2019-05-18T15:14:59.747Z,13.23
2019-05-18T15:17:28.184Z,13.00
2019-05-18T15:19:56.633Z,13.07
2019-05-18T15:22:25.073Z,15.10
2019-05-18T15:24:53.512Z,15.00
2019-05-18T15:27:21.945Z,17.00
2019-05-18T15:29:53.666Z,16.47
2019-05-18T15:32:22.103Z,16.17
2019-05-18T15:34:50.761Z,15.37
2019-05-18T15:37:19.193Z,15.93
2019-05-18T15:39:47.665Z,14.30
2019-05-18T15:42:16.106Z,12.83
2019-05-18T15:44:44.539Z,13.30
2019-05-18T15:47:12.973Z,12.97
2019-05-18T15:49:41.409Z,12.77
2019-05-18T15:52:09.963Z,11.73
2019-05-18T15:54:38.439Z,12.37
2019-05-18T15:57:07.069Z,12.90
2019-05-18T15:59:35.621Z,13.60
2019-05-18T16:02:06.422Z,12.33
2019-05-18T16:04:34.377Z,13.17
2019-05-18T16:07:02.880Z,12.40
2019-05-18T16:09:31.324Z,12.30
2019-05-18T16:11:59.775Z,13.77
2019-05-18T16:14:28.228Z,11.40
2019-05-18T16:16:56.670Z,12.93
2019-05-18T16:19:25.105Z,12.30
2019-05-18T16:21:53.551Z,11.70
2019-05-18T16:24:22.067Z,12.70
2019-05-18T16:26:50.538Z,12.73
2019-05-18T16:29:19.052Z,10.87
2019-05-18T16:31:47.633Z,12.27
2019-05-18T16:34:16.064Z,11.40
2019-05-18T16:36:44.502Z,11.85
2019-05-18T16:39:12.949Z,12.87
2019-05-18T16:41:41.403Z,11.93
2019-05-18T16:44:09.837Z,12.23
2019-05-18T16:46:38.283Z,13.00
2019-05-18T16:49:06.721Z,12.13
2019-05-18T16:51:35.172Z,12.40
2019-05-18T16:54:04.057Z,12.80
2019-05-18T16:56:35.302Z,12.60
2019-05-18T16:59:03.109Z,12.47
2019-05-18T17:01:31.548Z,13.70
2019-05-18T17:04:00.002Z,13.40
2019-05-18T17:06:28.470Z,14.17
2019-05-18T17:08:58.171Z,14.30
2019-05-18T17:11:26.739Z,15.90
2019-05-18T17:13:55.190Z,12.97
2019-05-18T17:16:23.917Z,14.03
2019-05-18T17:18:52.365Z,13.63
2019-05-18T17:21:20.801Z,14.10
2019-05-18T17:23:49.253Z,14.67
2019-05-18T17:26:17.765Z,14.93
2019-05-18T17:28:46.201Z,14.23
2019-05-18T17:31:14.818Z,16.73
2019-05-18T17:33:43.268Z,14.83
2019-05-18T17:36:11.728Z,15.53
2019-05-18T17:38:40.169Z,15.67
2019-05-18T17:41:08.866Z,15.40
2019-05-18T17:43:40.343Z,16.97
2019-05-18T17:46:08.932Z,15.53
2019-05-18T17:48:37.563Z,18.10
2019-05-18T17:51:06.271Z,16.23
2019-05-18T17:53:34.755Z,17.23
2019-05-18T17:56:03.524Z,17.53
2019-05-18T17:58:31.981Z,16.43
2019-05-18T18:01:00.443Z,16.87
2019-05-18T18:03:28.955Z,15.87
2019-05-18T18:05:57.453Z,17.40
2019-05-18T18:08:25.896Z,16.43
2019-05-18T18:10:54.334Z,18.40
2019-05-18T18:13:24.540Z,19.00
2019-05-18T18:15:52.989Z,16.87
2019-05-18T18:18:21.448Z,18.57
2019-05-18T18:20:49.877Z,20.20
2019-05-18T18:23:18.335Z,20.43
2019-05-18T18:25:46.761Z,17.67
2019-05-18T18:28:15.203Z,19.47
2019-05-18T18:30:44.223Z,19.90
2019-05-18T18:33:12.665Z,19.77
2019-05-18T18:35:41.101Z,21.07
2019-05-18T18:38:09.548Z,22.20
2019-05-18T18:40:38.183Z,21.50
2019-05-18T18:43:06.801Z,23.30
2019-05-18T18:45:35.334Z,21.90
2019-05-18T18:48:03.857Z,20.70
2019-05-18T18:50:32.305Z,21.60
2019-05-18T18:53:00.738Z,21.37
2019-05-18T18:55:29.373Z,22.10
2019-05-18T18:57:57.800Z,22.57
2019-05-18T19:00:26.268Z,23.37
2019-05-18T19:02:54.703Z,23.87
2019-05-18T19:05:23.220Z,23.10
2019-05-18T19:07:51.662Z,23.73
2019-05-18T19:10:20.494Z,23.07
2019-05-18T19:12:49.698Z,24.37
2019-05-18T19:15:18.191Z,23.67
2019-05-18T19:17:46.687Z,22.63
2019-05-18T19:20:15.761Z,24.80
2019-05-18T19:22:44.219Z,23.87
2019-05-18T19:25:13.110Z,22.93
2019-05-18T19:27:54.148Z,23.70
2019-05-18T19:30:12.757Z,24.37
2019-05-18T19:32:41.201Z,23.40
2019-05-18T19:35:09.837Z,23.60
2019-05-18T19:37:38.265Z,21.50
2019-05-18T19:40:07.641Z,22.37
2019-05-18T19:42:36.100Z,23.40
2019-05-18T19:45:06.641Z,22.17
2019-05-18T19:47:35.074Z,22.33
2019-05-18T19:50:04.863Z,21.87
2019-05-18T19:52:33.373Z,22.37
2019-05-18T19:55:01.850Z,23.40
2019-05-18T19:57:30.409Z,21.63
2019-05-18T19:59:58.905Z,22.80
2019-05-18T20:02:27.344Z,24.10
2019-05-18T20:05:07.200Z,24.40
2019-05-18T20:07:25.957Z,22.40
2019-05-18T20:09:54.394Z,24.17
2019-05-18T20:12:22.839Z,24.97
2019-05-18T20:14:51.327Z,23.03
2019-05-18T20:17:20.405Z,23.47
2019-05-18T20:19:48.855Z,32.13
2019-05-18T20:22:18.086Z,29.17
2019-05-18T20:24:47.097Z,27.77
2019-05-18T20:27:16.086Z,25.63
2019-05-18T20:29:44.624Z,27.17
2019-05-18T20:32:13.765Z,25.17
2019-05-18T20:34:42.181Z,25.80
2019-05-18T20:37:10.638Z,24.47
2019-05-18T20:39:39.088Z,23.37
2019-05-18T20:42:07.523Z,25.27
2019-05-18T20:44:35.960Z,26.10
2019-05-18T20:47:04.392Z,25.10
2019-05-18T20:49:32.850Z,25.50
2019-05-18T20:52:02.583Z,26.27
2019-05-18T20:54:31.180Z,24.33
2019-05-18T20:56:59.613Z,25.67
2019-05-18T20:59:28.053Z,27.40
2019-05-18T21:01:56.495Z,26.70
2019-05-18T21:04:24.933Z,26.60
2019-05-18T21:06:53.509Z,27.67
2019-05-18T21:09:22.021Z,27.80
2019-05-18T21:11:51.017Z,27.90
2019-05-18T21:14:19.493Z,26.83
2019-05-18T21:16:47.938Z,27.70
2019-05-18T21:19:16.392Z,28.33
2019-05-18T21:21:44.826Z,30.10
2019-05-18T21:24:13.278Z,28.57
2019-05-18T21:26:41.722Z,27.30
2019-05-18T21:29:10.270Z,27.30
2019-05-18T21:31:38.769Z,29.03
2019-05-18T21:34:07.289Z,27.97
2019-05-18T21:36:35.801Z,30.43
2019-05-18T21:39:05.804Z,30.50
2019-05-18T21:41:34.312Z,29.00
2019-05-18T21:44:02.931Z,30.50
2019-05-18T21:46:32.684Z,29.90
2019-05-18T21:49:02.638Z,30.27
2019-05-18T21:51:32.516Z,29.13
2019-05-18T21:54:00.982Z,28.47
2019-05-18T21:56:29.681Z,30.63
2019-05-18T21:59:10.542Z,29.10
2019-05-18T22:01:28.351Z,30.50
2019-05-18T22:03:56.807Z,32.17
2019-05-18T22:06:25.375Z,30.57
2019-05-18T22:08:53.829Z,28.63
2019-05-18T22:11:22.290Z,29.17
2019-05-18T22:13:50.745Z,31.47
2019-05-18T22:16:19.197Z,31.23
2019-05-18T22:18:47.647Z,32.17
2019-05-18T22:21:16.084Z,31.00
2019-05-18T22:23:44.529Z,30.07
2019-05-18T22:26:12.966Z,29.90
2019-05-18T22:28:41.530Z,31.13
2019-05-18T22:31:11.164Z,30.30
2019-05-18T22:33:39.649Z,31.33
2019-05-18T22:36:08.112Z,31.63
2019-05-18T22:38:36.698Z,31.70
2019-05-18T22:41:05.187Z,33.27
2019-05-18T22:43:33.700Z,33.03
2019-05-18T22:46:02.215Z,29.90
2019-05-18T22:48:40.977Z,33.00
2019-05-18T22:51:01.021Z,32.93
2019-05-18T22:53:29.593Z,33.70
2019-05-18T22:55:58.035Z,33.37
2019-05-18T22:58:26.474Z,35.33
2019-05-18T23:00:54.922Z,36.17
2019-05-18T23:03:23.358Z,33.73
2019-05-18T23:05:51.821Z,35.40
2019-05-18T23:08:20.330Z,34.87
2019-05-18T23:10:51.146Z,34.83
2019-05-18T23:13:19.574Z,32.10
2019-05-18T23:15:48.014Z,35.90
2019-05-18T23:18:16.472Z,35.47
2019-05-18T23:20:44.961Z,36.97
2019-05-18T23:23:13.393Z,36.50
2019-05-18T23:25:41.826Z,35.83
2019-05-18T23:28:10.274Z,35.97
2019-05-18T23:30:38.889Z,37.10
2019-05-18T23:33:07.341Z,37.20
2019-05-18T23:35:35.879Z,37.73
2019-05-18T23:38:04.327Z,35.67
2019-05-18T23:40:32.760Z,37.70
2019-05-18T23:43:01.224Z,33.90
2019-05-18T23:45:29.662Z,37.40
2019-05-18T23:47:59.567Z,35.80
2019-05-18T23:50:28.223Z,39.50
2019-05-18T23:53:53.847Z,40.00
2019-05-18T23:57:49.477Z,40.10
